sensor_id;sensor_type;location;lat;lon;timestamp;pressure;altitude;pressure_sealevel;temperature;humidity
18022;BME280;9136;48.822;7.966;2023-03-25T00:00:50;99699.81;;;8.79;100.00
18022;BME280;9136;48.822;7.966;2023-03-25T00:03:44;99662.50;;;8.73;100.00
18022;BME280;9136;48.822;7.966;2023-03-25T00:06:35;99710.22;;;9.07;100.00
18022;BME280;9136;48.822;7.966;2023-03-25T00:09:24;99718.41;;;8.97;100.00
18022;BME280;9136;48.822;7.966;2023-03-25T00:12:11;99721.03;;;8.97;100.00
18022;BME280;9136;48.822;7.966;2023-03-25T00:14:59;99702.88;;;8.92;100.00
18022;BME280;9136;48.822;7.966;2023-03-25T00:17:48;99688.06;;;8.91;100.00
18022;BME280;9136;48.822;7.966;2023-03-25T00:20:37;99696.19;;;9.08;100.00
18022;BME280;9136;48.822;7.966;2023-03-25T00:23:26;99712.38;;;9.20;100.00
18022;BME280;9136;48.822;7.966;2023-03-25T00:26:14;99694.56;;;9.04;100.00
18022;BME280;9136;48.822;7.966;2023-03-25T00:29:03;99703.28;;;9.05;100.00
18022;BME280;9136;48.822;7.966;2023-03-25T00:31:51;99675.81;;;8.92;100.00
18022;BME280;9136;48.822;7.966;2023-03-25T00:34:38;99679.28;;;8.92;100.00
18022;BME280;9136;48.822;7.966;2023-03-25T00:37:33;99679.97;;;8.97;100.00
18022;BME280;9136;48.822;7.966;2023-03-25T00:40:21;99671.84;;;9.05;100.00
18022;BME280;9136;48.822;7.966;2023-03-25T00:43:10;99685.22;;;9.22;100.00
18022;BME280;9136;48.822;7.966;2023-03-25T00:45:57;99679.91;;;9.24;100.00
18022;BME280;9136;48.822;7.966;2023-03-25T00:48:45;99677.09;;;9.30;100.00
18022;BME280;9136;48.822;7.966;2023-03-25T00:51:33;99659.84;;;9.23;100.00
18022;BME280;9136;48.822;7.966;2023-03-25T00:54:23;99628.69;;;9.15;100.00
18022;BME280;9136;48.822;7.966;2023-03-25T00:57:11;99646.13;;;9.16;100.00
18022;BME280;9136;48.822;7.966;2023-03-25T00:59:59;99648.25;;;9.05;100.00
18022;BME280;9136;48.822;7.966;2023-03-25T01:02:48;99658.75;;;9.05;100.00
18022;BME280;9136;48.822;7.966;2023-03-25T01:05:38;99659.00;;;8.97;100.00
18022;BME280;9136;48.822;7.966;2023-03-25T01:08:27;99638.31;;;8.65;100.00
18022;BME280;9136;48.822;7.966;2023-03-25T01:11:20;99673.94;;;8.44;100.00
18022;BME280;9136;48.822;7.966;2023-03-25T01:14:12;99723.06;;;8.34;100.00
18022;BME280;9136;48.822;7.966;2023-03-25T01:17:00;99712.69;;;8.03;100.00
18022;BME280;9136;48.822;7.966;2023-03-25T01:19:48;99715.88;;;7.85;100.00
18022;BME280;9136;48.822;7.966;2023-03-25T01:22:36;99764.31;;;7.67;100.00
18022;BME280;9136;48.822;7.966;2023-03-25T01:25:24;99731.66;;;7.51;100.00
18022;BME280;9136;48.822;7.966;2023-03-25T01:28:12;99730.53;;;7.59;100.00
18022;BME280;9136;48.822;7.966;2023-03-25T01:31:01;99731.00;;;7.44;100.00
18022;BME280;9136;48.822;7.966;2023-03-25T01:33:49;99731.53;;;7.24;100.00
18022;BME280;9136;48.822;7.966;2023-03-25T01:36:36;99766.44;;;7.20;100.00
18022;BME280;9136;48.822;7.966;2023-03-25T01:39:24;99750.25;;;7.07;100.00
18022;BME280;9136;48.822;7.966;2023-03-25T01:42:12;99718.31;;;6.98;100.00
18022;BME280;9136;48.822;7.966;2023-03-25T01:45:21;99703.28;;;7.06;100.00
18022;BME280;9136;48.822;7.966;2023-03-25T01:48:12;99691.47;;;6.91;100.00
18022;BME280;9136;48.822;7.966;2023-03-25T01:51:04;99661.09;;;6.88;100.00
18022;BME280;9136;48.822;7.966;2023-03-25T01:53:56;99666.53;;;7.12;100.00
18022;BME280;9136;48.822;7.966;2023-03-25T01:56:46;99648.94;;;6.87;100.00
18022;BME280;9136;48.822;7.966;2023-03-25T01:59:37;99641.06;;;6.89;100.00
18022;BME280;9136;48.822;7.966;2023-03-25T02:02:27;99655.97;;;6.84;100.00
18022;BME280;9136;48.822;7.966;2023-03-25T02:05:25;99637.94;;;6.76;100.00
18022;BME280;9136;48.822;7.966;2023-03-25T02:08:15;99660.34;;;6.83;100.00
18022;BME280;9136;48.822;7.966;2023-03-25T02:11:06;99658.03;;;6.73;100.00
18022;BME280;9136;48.822;7.966;2023-03-25T02:13:54;99656.84;;;6.84;100.00
18022;BME280;9136;48.822;7.966;2023-03-25T02:16:47;99653.69;;;6.72;100.00
18022;BME280;9136;48.822;7.966;2023-03-25T02:20:04;99651.00;;;6.75;100.00
18022;BME280;9136;48.822;7.966;2023-03-25T02:23:31;99667.31;;;6.83;100.00
18022;BME280;9136;48.822;7.966;2023-03-25T02:33:41;99692.53;;;6.84;100.00
18022;BME280;9136;48.822;7.966;2023-03-25T02:40:04;99674.44;;;6.78;100.00
18022;BME280;9136;48.822;7.966;2023-03-25T02:42:56;99702.88;;;6.88;100.00
18022;BME280;9136;48.822;7.966;2023-03-25T02:45:49;99700.97;;;6.94;100.00
18022;BME280;9136;48.822;7.966;2023-03-25T02:48:43;99705.25;;;6.98;100.00
18022;BME280;9136;48.822;7.966;2023-03-25T02:51:36;99703.19;;;7.09;100.00
18022;BME280;9136;48.822;7.966;2023-03-25T02:54:26;99696.13;;;7.12;100.00
18022;BME280;9136;48.822;7.966;2023-03-25T02:57:21;99695.28;;;7.12;100.00
18022;BME280;9136;48.822;7.966;2023-03-25T03:00:11;99687.38;;;7.15;100.00
18022;BME280;9136;48.822;7.966;2023-03-25T03:03:02;99703.47;;;7.31;100.00
18022;BME280;9136;48.822;7.966;2023-03-25T03:05:52;99713.97;;;7.29;100.00
18022;BME280;9136;48.822;7.966;2023-03-25T03:08:52;99711.25;;;7.32;100.00
18022;BME280;9136;48.822;7.966;2023-03-25T03:11:46;99700.09;;;7.27;100.00
18022;BME280;9136;48.822;7.966;2023-03-25T03:14:52;99696.81;;;7.19;100.00
18022;BME280;9136;48.822;7.966;2023-03-25T03:17:47;99689.00;;;7.19;100.00
18022;BME280;9136;48.822;7.966;2023-03-25T03:20:53;99703.84;;;7.17;100.00
18022;BME280;9136;48.822;7.966;2023-03-25T03:23:50;99706.25;;;7.25;100.00
18022;BME280;9136;48.822;7.966;2023-03-25T03:26:44;99684.06;;;7.08;100.00
18022;BME280;9136;48.822;7.966;2023-03-25T03:29:35;99718.28;;;7.30;100.00
18022;BME280;9136;48.822;7.966;2023-03-25T03:32:29;99720.13;;;7.58;100.00
18022;BME280;9136;48.822;7.966;2023-03-25T03:35:23;99716.31;;;7.69;100.00
18022;BME280;9136;48.822;7.966;2023-03-25T03:38:14;99731.59;;;7.83;100.00
18022;BME280;9136;48.822;7.966;2023-03-25T03:41:05;99716.63;;;7.88;100.00
18022;BME280;9136;48.822;7.966;2023-03-25T03:43:57;99732.03;;;7.97;100.00
18022;BME280;9136;48.822;7.966;2023-03-25T03:46:50;99726.00;;;7.95;100.00
18022;BME280;9136;48.822;7.966;2023-03-25T03:49:46;99720.31;;;7.81;100.00
18022;BME280;9136;48.822;7.966;2023-03-25T03:52:38;99730.97;;;8.04;100.00
18022;BME280;9136;48.822;7.966;2023-03-25T03:55:31;99718.31;;;7.89;100.00
18022;BME280;9136;48.822;7.966;2023-03-25T03:58:25;99723.34;;;7.97;100.00
18022;BME280;9136;48.822;7.966;2023-03-25T04:01:18;99714.13;;;8.13;100.00
18022;BME280;9136;48.822;7.966;2023-03-25T04:04:16;99716.41;;;7.96;100.00
18022;BME280;9136;48.822;7.966;2023-03-25T04:07:11;99734.59;;;7.99;100.00
18022;BME280;9136;48.822;7.966;2023-03-25T04:10:07;99737.16;;;8.02;100.00
18022;BME280;9136;48.822;7.966;2023-03-25T04:13:02;99747.88;;;8.22;100.00
18022;BME280;9136;48.822;7.966;2023-03-25T04:15:51;99736.63;;;8.19;100.00
18022;BME280;9136;48.822;7.966;2023-03-25T04:18:39;99726.03;;;8.23;100.00
18022;BME280;9136;48.822;7.966;2023-03-25T04:21:28;99715.97;;;8.10;100.00
18022;BME280;9136;48.822;7.966;2023-03-25T04:24:18;99715.69;;;8.19;100.00
18022;BME280;9136;48.822;7.966;2023-03-25T04:27:05;99728.47;;;8.28;100.00
18022;BME280;9136;48.822;7.966;2023-03-25T04:29:54;99733.81;;;8.25;100.00
18022;BME280;9136;48.822;7.966;2023-03-25T04:32:43;99713.28;;;8.13;100.00
18022;BME280;9136;48.822;7.966;2023-03-25T04:35:32;99713.56;;;8.31;100.00
18022;BME280;9136;48.822;7.966;2023-03-25T04:38:20;99715.31;;;8.31;100.00
18022;BME280;9136;48.822;7.966;2023-03-25T04:41:10;99717.09;;;8.29;100.00
18022;BME280;9136;48.822;7.966;2023-03-25T04:43:58;99701.75;;;8.18;100.00
18022;BME280;9136;48.822;7.966;2023-03-25T04:46:47;99720.63;;;8.28;100.00
18022;BME280;9136;48.822;7.966;2023-03-25T04:49:35;99709.19;;;8.32;100.00
18022;BME280;9136;48.822;7.966;2023-03-25T04:52:22;99708.44;;;8.27;100.00
18022;BME280;9136;48.822;7.966;2023-03-25T04:55:11;99713.25;;;8.42;100.00
18022;BME280;9136;48.822;7.966;2023-03-25T04:58:04;99697.09;;;8.28;100.00
18022;BME280;9136;48.822;7.966;2023-03-25T05:00:53;99708.44;;;8.27;100.00
18022;BME280;9136;48.822;7.966;2023-03-25T05:03:41;99727.78;;;8.23;100.00
18022;BME280;9136;48.822;7.966;2023-03-25T05:06:30;99730.44;;;8.51;100.00
18022;BME280;9136;48.822;7.966;2023-03-25T05:09:19;99709.97;;;8.36;100.00
18022;BME280;9136;48.822;7.966;2023-03-25T05:12:08;99711.88;;;8.57;100.00
18022;BME280;9136;48.822;7.966;2023-03-25T05:14:58;99722.06;;;8.66;100.00
18022;BME280;9136;48.822;7.966;2023-03-25T05:17:46;99727.00;;;8.75;100.00
18022;BME280;9136;48.822;7.966;2023-03-25T05:20:35;99724.53;;;8.71;100.00
18022;BME280;9136;48.822;7.966;2023-03-25T05:23:23;99729.47;;;8.80;100.00
18022;BME280;9136;48.822;7.966;2023-03-25T05:26:11;99717.03;;;8.60;100.00
18022;BME280;9136;48.822;7.966;2023-03-25T05:28:59;99738.56;;;8.68;100.00
18022;BME280;9136;48.822;7.966;2023-03-25T05:31:49;99740.09;;;8.75;100.00
18022;BME280;9136;48.822;7.966;2023-03-25T05:34:37;99744.16;;;8.84;100.00
18022;BME280;9136;48.822;7.966;2023-03-25T05:37:25;99751.97;;;8.85;100.00
18022;BME280;9136;48.822;7.966;2023-03-25T05:40:13;99708.16;;;8.64;100.00
18022;BME280;9136;48.822;7.966;2023-03-25T05:43:01;99748.06;;;8.72;100.00
18022;BME280;9136;48.822;7.966;2023-03-25T05:45:49;99737.03;;;8.63;100.00
18022;BME280;9136;48.822;7.966;2023-03-25T05:48:38;99732.78;;;8.58;100.00
18022;BME280;9136;48.822;7.966;2023-03-25T05:51:28;99751.97;;;8.59;100.00
18022;BME280;9136;48.822;7.966;2023-03-25T05:54:18;99754.78;;;8.53;100.00
18022;BME280;9136;48.822;7.966;2023-03-25T05:57:08;99764.13;;;8.62;100.00
18022;BME280;9136;48.822;7.966;2023-03-25T05:59:56;99740.59;;;8.60;100.00
18022;BME280;9136;48.822;7.966;2023-03-25T06:02:44;99731.97;;;8.56;100.00
18022;BME280;9136;48.822;7.966;2023-03-25T06:05:37;99755.16;;;8.69;100.00
18022;BME280;9136;48.822;7.966;2023-03-25T06:08:25;99729.50;;;8.52;100.00
18022;BME280;9136;48.822;7.966;2023-03-25T06:11:15;99723.91;;;8.36;100.00
18022;BME280;9136;48.822;7.966;2023-03-25T06:14:04;99762.47;;;8.57;100.00
18022;BME280;9136;48.822;7.966;2023-03-25T06:16:52;99751.59;;;8.43;100.00
18022;BME280;9136;48.822;7.966;2023-03-25T06:19:41;99767.72;;;8.57;100.00
18022;BME280;9136;48.822;7.966;2023-03-25T06:22:31;99744.66;;;8.42;100.00
18022;BME280;9136;48.822;7.966;2023-03-25T06:25:19;99755.81;;;8.47;100.00
18022;BME280;9136;48.822;7.966;2023-03-25T06:28:07;99722.19;;;8.35;100.00
18022;BME280;9136;48.822;7.966;2023-03-25T06:30:55;99737.50;;;8.47;100.00
18022;BME280;9136;48.822;7.966;2023-03-25T06:33:43;99755.28;;;8.64;100.00
18022;BME280;9136;48.822;7.966;2023-03-25T06:36:31;99747.75;;;8.81;100.00
18022;BME280;9136;48.822;7.966;2023-03-25T06:39:21;99767.06;;;8.77;100.00
18022;BME280;9136;48.822;7.966;2023-03-25T06:42:10;99748.38;;;8.33;100.00
18022;BME280;9136;48.822;7.966;2023-03-25T06:44:58;99761.22;;;8.13;100.00
18022;BME280;9136;48.822;7.966;2023-03-25T06:47:48;99742.59;;;7.94;100.00
18022;BME280;9136;48.822;7.966;2023-03-25T06:50:36;99756.38;;;7.99;100.00
18022;BME280;9136;48.822;7.966;2023-03-25T06:53:25;99739.25;;;7.89;100.00
18022;BME280;9136;48.822;7.966;2023-03-25T06:56:14;99723.38;;;7.95;100.00
18022;BME280;9136;48.822;7.966;2023-03-25T06:59:02;99725.34;;;8.17;100.00
18022;BME280;9136;48.822;7.966;2023-03-25T07:01:49;99745.50;;;8.43;100.00
18022;BME280;9136;48.822;7.966;2023-03-25T07:04:38;99743.69;;;8.45;100.00
18022;BME280;9136;48.822;7.966;2023-03-25T07:07:25;99720.38;;;8.37;100.00
18022;BME280;9136;48.822;7.966;2023-03-25T07:10:13;99732.19;;;8.50;100.00
18022;BME280;9136;48.822;7.966;2023-03-25T07:13:03;99731.34;;;8.48;100.00
18022;BME280;9136;48.822;7.966;2023-03-25T07:15:53;99740.56;;;8.62;100.00
18022;BME280;9136;48.822;7.966;2023-03-25T07:18:41;99740.72;;;8.55;100.00
18022;BME280;9136;48.822;7.966;2023-03-25T07:21:29;99736.28;;;8.59;100.00
18022;BME280;9136;48.822;7.966;2023-03-25T07:24:17;99730.31;;;8.54;100.00
18022;BME280;9136;48.822;7.966;2023-03-25T07:27:05;99739.41;;;8.70;100.00
18022;BME280;9136;48.822;7.966;2023-03-25T07:29:54;99738.97;;;8.82;100.00
18022;BME280;9136;48.822;7.966;2023-03-25T07:32:43;99740.19;;;8.72;100.00
18022;BME280;9136;48.822;7.966;2023-03-25T07:35:31;99746.22;;;8.74;100.00
18022;BME280;9136;48.822;7.966;2023-03-25T07:38:18;99754.69;;;8.82;100.00
18022;BME280;9136;48.822;7.966;2023-03-25T07:41:08;99741.78;;;8.76;100.00
18022;BME280;9136;48.822;7.966;2023-03-25T07:43:56;99727.59;;;8.57;100.00
18022;BME280;9136;48.822;7.966;2023-03-25T07:46:45;99733.22;;;8.45;100.00
18022;BME280;9136;48.822;7.966;2023-03-25T07:49:34;99742.06;;;8.13;100.00
18022;BME280;9136;48.822;7.966;2023-03-25T07:52:21;99730.81;;;7.80;100.00
18022;BME280;9136;48.822;7.966;2023-03-25T07:55:09;99762.41;;;7.72;100.00
18022;BME280;9136;48.822;7.966;2023-03-25T07:57:57;99752.41;;;7.57;100.00
18022;BME280;9136;48.822;7.966;2023-03-25T08:00:47;99760.50;;;7.47;100.00
18022;BME280;9136;48.822;7.966;2023-03-25T08:03:36;99778.88;;;7.44;100.00
18022;BME280;9136;48.822;7.966;2023-03-25T08:06:24;99766.91;;;7.36;100.00
18022;BME280;9136;48.822;7.966;2023-03-25T08:09:12;99766.72;;;7.43;100.00
18022;BME280;9136;48.822;7.966;2023-03-25T08:12:00;99767.44;;;7.49;100.00
18022;BME280;9136;48.822;7.966;2023-03-25T08:14:48;99783.66;;;7.60;100.00
18022;BME280;9136;48.822;7.966;2023-03-25T08:17:37;99780.16;;;7.61;100.00
18022;BME280;9136;48.822;7.966;2023-03-25T08:20:27;99763.66;;;7.59;100.00
18022;BME280;9136;48.822;7.966;2023-03-25T08:23:15;99760.88;;;7.65;100.00
18022;BME280;9136;48.822;7.966;2023-03-25T08:26:04;99772.16;;;7.67;100.00
18022;BME280;9136;48.822;7.966;2023-03-25T08:28:52;99776.16;;;7.79;100.00
18022;BME280;9136;48.822;7.966;2023-03-25T08:31:42;99756.84;;;7.84;100.00
18022;BME280;9136;48.822;7.966;2023-03-25T08:34:32;99746.88;;;7.97;100.00
18022;BME280;9136;48.822;7.966;2023-03-25T08:37:26;99749.22;;;8.06;100.00
18022;BME280;9136;48.822;7.966;2023-03-25T08:40:16;99766.63;;;8.07;100.00
18022;BME280;9136;48.822;7.966;2023-03-25T08:43:04;99755.53;;;7.99;100.00
18022;BME280;9136;48.822;7.966;2023-03-25T08:45:52;99751.16;;;7.99;100.00
18022;BME280;9136;48.822;7.966;2023-03-25T08:48:40;99752.84;;;8.02;100.00
18022;BME280;9136;48.822;7.966;2023-03-25T08:51:29;99760.06;;;7.94;100.00
18022;BME280;9136;48.822;7.966;2023-03-25T08:54:19;99774.63;;;8.02;100.00
18022;BME280;9136;48.822;7.966;2023-03-25T08:57:08;99761.06;;;8.18;100.00
18022;BME280;9136;48.822;7.966;2023-03-25T08:59:56;99737.34;;;8.24;100.00
18022;BME280;9136;48.822;7.966;2023-03-25T09:02:44;99752.41;;;8.16;100.00
18022;BME280;9136;48.822;7.966;2023-03-25T09:05:35;99730.06;;;8.06;100.00
18022;BME280;9136;48.822;7.966;2023-03-25T09:08:23;99737.00;;;8.07;100.00
18022;BME280;9136;48.822;7.966;2023-03-25T09:11:13;99743.72;;;8.15;100.00
18022;BME280;9136;48.822;7.966;2023-03-25T09:14:02;99750.25;;;8.30;100.00
18022;BME280;9136;48.822;7.966;2023-03-25T09:16:50;99772.91;;;8.31;100.00
18022;BME280;9136;48.822;7.966;2023-03-25T09:19:38;99772.31;;;8.21;100.00
18022;BME280;9136;48.822;7.966;2023-03-25T09:22:25;99769.69;;;8.21;100.00
18022;BME280;9136;48.822;7.966;2023-03-25T09:25:13;99775.78;;;8.22;100.00
18022;BME280;9136;48.822;7.966;2023-03-25T09:28:03;99743.09;;;8.07;100.00
18022;BME280;9136;48.822;7.966;2023-03-25T09:30:51;99768.63;;;8.27;100.00
18022;BME280;9136;48.822;7.966;2023-03-25T09:33:40;99749.09;;;8.40;100.00
18022;BME280;9136;48.822;7.966;2023-03-25T09:36:28;99744.25;;;8.54;100.00
18022;BME280;9136;48.822;7.966;2023-03-25T09:39:17;99742.22;;;8.91;100.00
18022;BME280;9136;48.822;7.966;2023-03-25T09:42:22;99737.81;;;9.17;100.00
18022;BME280;9136;48.822;7.966;2023-03-25T09:45:24;99738.34;;;9.26;100.00
18022;BME280;9136;48.822;7.966;2023-03-25T09:48:26;99729.50;;;9.30;100.00
18022;BME280;9136;48.822;7.966;2023-03-25T09:51:19;99749.50;;;9.57;100.00
18022;BME280;9136;48.822;7.966;2023-03-25T09:54:16;99749.16;;;9.41;100.00
18022;BME280;9136;48.822;7.966;2023-03-25T09:57:07;99739.34;;;9.48;100.00
18022;BME280;9136;48.822;7.966;2023-03-25T10:00:00;99749.75;;;9.50;100.00
18022;BME280;9136;48.822;7.966;2023-03-25T10:03:03;99760.94;;;9.55;100.00
18022;BME280;9136;48.822;7.966;2023-03-25T10:06:12;99783.28;;;9.65;100.00
18022;BME280;9136;48.822;7.966;2023-03-25T10:09:13;99794.91;;;10.06;100.00
18022;BME280;9136;48.822;7.966;2023-03-25T10:12:15;99784.47;;;10.04;100.00
18022;BME280;9136;48.822;7.966;2023-03-25T10:15:16;99778.41;;;10.02;100.00
18022;BME280;9136;48.822;7.966;2023-03-25T10:18:31;99769.25;;;10.14;100.00
18022;BME280;9136;48.822;7.966;2023-03-25T10:21:27;99782.25;;;10.63;100.00
18022;BME280;9136;48.822;7.966;2023-03-25T10:24:21;99772.94;;;10.76;100.00
18022;BME280;9136;48.822;7.966;2023-03-25T10:27:14;99801.34;;;10.44;100.00
18022;BME280;9136;48.822;7.966;2023-03-25T10:30:11;99743.38;;;10.27;100.00
18022;BME280;9136;48.822;7.966;2023-03-25T10:33:02;99763.75;;;10.44;100.00
18022;BME280;9136;48.822;7.966;2023-03-25T10:35:52;99768.13;;;10.20;100.00
18022;BME280;9136;48.822;7.966;2023-03-25T10:38:42;99772.53;;;10.19;100.00
18022;BME280;9136;48.822;7.966;2023-03-25T10:41:34;99782.22;;;10.17;100.00
18022;BME280;9136;48.822;7.966;2023-03-25T10:44:23;99796.41;;;9.65;100.00
18022;BME280;9136;48.822;7.966;2023-03-25T10:47:16;99800.44;;;9.50;100.00
18022;BME280;9136;48.822;7.966;2023-03-25T10:50:06;99777.09;;;9.67;100.00
18022;BME280;9136;48.822;7.966;2023-03-25T10:52:59;99782.56;;;10.08;100.00
18022;BME280;9136;48.822;7.966;2023-03-25T10:55:48;99771.28;;;10.06;100.00
18022;BME280;9136;48.822;7.966;2023-03-25T10:58:39;99784.63;;;10.69;100.00
18022;BME280;9136;48.822;7.966;2023-03-25T11:01:34;99788.22;;;10.88;100.00
18022;BME280;9136;48.822;7.966;2023-03-25T11:04:32;99779.00;;;11.40;100.00
18022;BME280;9136;48.822;7.966;2023-03-25T11:07:24;99767.78;;;13.06;100.00
18022;BME280;9136;48.822;7.966;2023-03-25T11:10:17;99776.88;;;12.65;100.00
18022;BME280;9136;48.822;7.966;2023-03-25T11:13:10;99763.41;;;12.52;100.00
18022;BME280;9136;48.822;7.966;2023-03-25T11:16:02;99794.00;;;11.59;100.00
18022;BME280;9136;48.822;7.966;2023-03-25T11:18:52;99778.63;;;11.29;100.00
18022;BME280;9136;48.822;7.966;2023-03-25T11:21:45;99770.44;;;10.95;100.00
18022;BME280;9136;48.822;7.966;2023-03-25T11:24:40;99800.56;;;10.86;100.00
18022;BME280;9136;48.822;7.966;2023-03-25T11:27:39;99782.91;;;10.68;100.00
18022;BME280;9136;48.822;7.966;2023-03-25T11:30:30;99827.06;;;10.58;100.00
18022;BME280;9136;48.822;7.966;2023-03-25T11:33:18;99804.63;;;9.79;100.00
18022;BME280;9136;48.822;7.966;2023-03-25T11:36:21;99815.97;;;9.56;100.00
18022;BME280;9136;48.822;7.966;2023-03-25T11:39:16;99815.84;;;10.76;100.00
18022;BME280;9136;48.822;7.966;2023-03-25T11:42:13;99822.97;;;11.57;100.00
18022;BME280;9136;48.822;7.966;2023-03-25T11:45:04;99823.78;;;12.75;100.00
18022;BME280;9136;48.822;7.966;2023-03-25T11:47:56;99788.94;;;12.69;100.00
18022;BME280;9136;48.822;7.966;2023-03-25T11:50:48;99789.50;;;12.39;100.00
18022;BME280;9136;48.822;7.966;2023-03-25T11:53:43;99811.03;;;12.10;100.00
18022;BME280;9136;48.822;7.966;2023-03-25T11:56:33;99832.75;;;13.26;100.00
18022;BME280;9136;48.822;7.966;2023-03-25T11:59:23;99798.81;;;12.82;100.00
18022;BME280;9136;48.822;7.966;2023-03-25T12:02:29;99821.00;;;12.78;100.00
18022;BME280;9136;48.822;7.966;2023-03-25T12:05:23;99807.53;;;14.37;97.98
18022;BME280;9136;48.822;7.966;2023-03-25T12:08:13;99818.59;;;15.83;80.90
18022;BME280;9136;48.822;7.966;2023-03-25T12:11:06;99796.44;;;16.12;72.96
18022;BME280;9136;48.822;7.966;2023-03-25T12:14:13;99793.22;;;15.93;67.20
18022;BME280;9136;48.822;7.966;2023-03-25T12:17:05;99804.56;;;15.81;77.28
18022;BME280;9136;48.822;7.966;2023-03-25T12:20:03;99820.38;;;14.60;79.69
18022;BME280;9136;48.822;7.966;2023-03-25T12:23:02;99783.84;;;14.83;92.91
18022;BME280;9136;48.822;7.966;2023-03-25T12:25:54;99778.19;;;13.44;91.49
18022;BME280;9136;48.822;7.966;2023-03-25T12:29:02;99802.22;;;13.72;97.39
18022;BME280;9136;48.822;7.966;2023-03-25T12:32:13;99778.16;;;12.56;99.36
18022;BME280;9136;48.822;7.966;2023-03-25T12:35:18;99786.50;;;12.28;100.00
18022;BME280;9136;48.822;7.966;2023-03-25T12:38:22;99763.69;;;12.65;100.00
18022;BME280;9136;48.822;7.966;2023-03-25T12:41:20;99776.50;;;12.53;98.94
18022;BME280;9136;48.822;7.966;2023-03-25T12:44:11;99766.09;;;14.06;80.43
18022;BME280;9136;48.822;7.966;2023-03-25T12:47:14;99772.09;;;13.59;83.69
18022;BME280;9136;48.822;7.966;2023-03-25T12:53:43;99766.97;;;12.51;91.91
18022;BME280;9136;48.822;7.966;2023-03-25T12:56:47;99763.91;;;12.41;96.07
18022;BME280;9136;48.822;7.966;2023-03-25T12:59:57;99800.94;;;12.00;100.00
18022;BME280;9136;48.822;7.966;2023-03-25T13:03:24;99827.34;;;10.03;100.00
18022;BME280;9136;48.822;7.966;2023-03-25T13:06:25;99814.78;;;9.40;100.00
18022;BME280;9136;48.822;7.966;2023-03-25T13:09:20;99791.44;;;10.51;100.00
18022;BME280;9136;48.822;7.966;2023-03-25T13:12:13;99779.44;;;11.91;100.00
18022;BME280;9136;48.822;7.966;2023-03-25T13:18:03;99753.03;;;13.54;100.00
18022;BME280;9136;48.822;7.966;2023-03-25T13:20:59;99754.69;;;16.16;82.82
18022;BME280;9136;48.822;7.966;2023-03-25T13:23:51;99764.06;;;16.07;69.32
18022;BME280;9136;48.822;7.966;2023-03-25T13:26:45;99767.00;;;16.31;66.82
18022;BME280;9136;48.822;7.966;2023-03-25T13:29:38;99765.84;;;16.21;66.61
18022;BME280;9136;48.822;7.966;2023-03-25T13:32:31;99758.22;;;15.29;69.90
18022;BME280;9136;48.822;7.966;2023-03-25T13:35:32;99764.13;;;15.49;70.03
18022;BME280;9136;48.822;7.966;2023-03-25T13:38:26;99741.09;;;15.93;73.78
18022;BME280;9136;48.822;7.966;2023-03-25T13:41:22;99741.44;;;17.11;60.80
18022;BME280;9136;48.822;7.966;2023-03-25T13:44:26;99731.06;;;16.13;59.29
18022;BME280;9136;48.822;7.966;2023-03-25T13:47:19;99741.06;;;16.22;56.55
18022;BME280;9136;48.822;7.966;2023-03-25T13:50:16;99718.56;;;16.00;55.84
18022;BME280;9136;48.822;7.966;2023-03-25T13:53:14;99734.91;;;15.36;58.72
18022;BME280;9136;48.822;7.966;2023-03-25T13:56:24;99739.69;;;15.29;59.28
18022;BME280;9136;48.822;7.966;2023-03-25T14:02:54;99758.13;;;14.55;57.31
18022;BME280;9136;48.822;7.966;2023-03-25T14:12:25;99767.59;;;14.59;52.59
18022;BME280;9136;48.822;7.966;2023-03-25T14:15:19;99752.81;;;14.71;50.35
18022;BME280;9136;48.822;7.966;2023-03-25T14:18:15;99743.09;;;14.71;50.88
18022;BME280;9136;48.822;7.966;2023-03-25T14:21:13;99764.16;;;14.73;51.27
18022;BME280;9136;48.822;7.966;2023-03-25T14:24:04;99757.53;;;14.50;49.33
18022;BME280;9136;48.822;7.966;2023-03-25T14:26:55;99768.91;;;14.35;47.97
18022;BME280;9136;48.822;7.966;2023-03-25T14:29:52;99746.50;;;14.10;48.28
18022;BME280;9136;48.822;7.966;2023-03-25T14:32:45;99738.91;;;14.04;48.00
18022;BME280;9136;48.822;7.966;2023-03-25T14:35:57;99744.53;;;14.14;47.65
18022;BME280;9136;48.822;7.966;2023-03-25T14:38:53;99745.38;;;13.98;48.44
18022;BME280;9136;48.822;7.966;2023-03-25T14:41:59;99723.75;;;14.08;49.11
18022;BME280;9136;48.822;7.966;2023-03-25T14:44:49;99721.19;;;14.38;48.67
18022;BME280;9136;48.822;7.966;2023-03-25T14:47:50;99724.78;;;14.68;48.52
18022;BME280;9136;48.822;7.966;2023-03-25T14:50:39;99719.22;;;14.73;46.49
18022;BME280;9136;48.822;7.966;2023-03-25T14:53:28;99729.69;;;14.74;48.04
18022;BME280;9136;48.822;7.966;2023-03-25T14:56:19;99738.31;;;14.78;46.46
18022;BME280;9136;48.822;7.966;2023-03-25T14:59:13;99736.47;;;14.32;45.84
18022;BME280;9136;48.822;7.966;2023-03-25T15:02:10;99756.78;;;14.48;45.57
18022;BME280;9136;48.822;7.966;2023-03-25T15:05:14;99721.03;;;14.41;45.60
18022;BME280;9136;48.822;7.966;2023-03-25T15:08:12;99722.56;;;14.60;46.51
18022;BME280;9136;48.822;7.966;2023-03-25T15:11:04;99711.25;;;14.88;45.88
18022;BME280;9136;48.822;7.966;2023-03-25T15:13:57;99725.25;;;14.75;47.70
18022;BME280;9136;48.822;7.966;2023-03-25T15:16:57;99724.59;;;14.08;49.05
18022;BME280;9136;48.822;7.966;2023-03-25T15:20:25;99730.28;;;14.79;49.58
18022;BME280;9136;48.822;7.966;2023-03-25T15:23:33;99725.41;;;14.87;47.84
18022;BME280;9136;48.822;7.966;2023-03-25T15:26:27;99716.22;;;14.79;48.07
18022;BME280;9136;48.822;7.966;2023-03-25T15:29:41;99723.13;;;14.66;45.48
18022;BME280;9136;48.822;7.966;2023-03-25T15:32:42;99747.34;;;14.26;45.74
18022;BME280;9136;48.822;7.966;2023-03-25T15:35:49;99695.81;;;14.03;46.63
18022;BME280;9136;48.822;7.966;2023-03-25T15:39:07;99717.28;;;14.45;46.78
18022;BME280;9136;48.822;7.966;2023-03-25T15:42:31;99740.13;;;14.30;46.54
18022;BME280;9136;48.822;7.966;2023-03-25T15:45:39;99735.09;;;14.57;47.07
18022;BME280;9136;48.822;7.966;2023-03-25T15:48:58;99748.81;;;14.64;48.62
18022;BME280;9136;48.822;7.966;2023-03-25T15:52:02;99729.63;;;14.44;49.47
18022;BME280;9136;48.822;7.966;2023-03-25T15:54:59;99745.22;;;14.17;49.71